createdAt,value
2023-04-04T00:03:22.305Z,96.59
2023-04-04T00:08:26.080Z,96.11
2023-04-04T00:13:29.401Z,97.07
2023-04-04T00:18:33.670Z,96.91
2023-04-04T00:23:37.417Z,97.35
2023-04-04T00:28:40.862Z,97.37
2023-04-04T00:33:44.664Z,94.83
2023-04-04T00:38:48.285Z,93.62
2023-04-04T00:43:51.952Z,94.24
2023-04-04T00:48:56.293Z,90.37
2023-04-04T00:54:00.191Z,92.72
2023-04-04T00:59:03.594Z,93.82
2023-04-04T01:04:07.276Z,94.37
2023-04-04T01:09:11.337Z,95.64
2023-04-04T01:14:16.481Z,95.97
2023-04-04T01:19:33.901Z,97.85
2023-04-04T01:24:43.726Z,98.48
2023-04-04T01:29:47.185Z,98.98
2023-04-04T01:35:37.474Z,99.67
2023-04-04T01:40:42.280Z,98.90
2023-04-04T01:45:46.511Z,100.00
2023-04-04T01:50:51.482Z,100.00
2023-04-04T01:55:55.186Z,100.00
2023-04-04T02:00:58.827Z,100.00
2023-04-04T02:06:03.188Z,100.00
2023-04-04T02:11:07.309Z,100.00
2023-04-04T02:16:12.090Z,100.00
2023-04-04T02:21:16.914Z,100.00
2023-04-04T02:26:20.121Z,100.00
2023-04-04T02:31:23.788Z,100.00
2023-04-04T02:36:29.212Z,100.00
2023-04-04T02:41:34.613Z,100.00
2023-04-04T02:46:38.916Z,100.00
2023-04-04T02:51:45.876Z,100.00
2023-04-04T02:56:49.461Z,100.00
2023-04-04T03:01:53.124Z,100.00
2023-04-04T03:06:57.003Z,100.00
2023-04-04T03:12:01.633Z,100.00
2023-04-04T03:17:06.594Z,100.00
2023-04-04T03:22:09.941Z,100.00
2023-04-04T03:27:13.476Z,100.00
2023-04-04T03:32:18.536Z,100.00
2023-04-04T03:37:23.121Z,100.00
2023-04-04T03:42:27.203Z,100.00
2023-04-04T03:47:30.665Z,100.00
2023-04-04T03:52:40.101Z,100.00
2023-04-04T03:57:43.601Z,100.00
2023-04-04T04:02:49.977Z,100.00
2023-04-04T04:07:54.188Z,100.00
2023-04-04T04:12:57.958Z,100.00
2023-04-04T04:18:01.604Z,100.00
2023-04-04T04:23:05.667Z,100.00
2023-04-04T04:28:09.119Z,100.00
2023-04-04T04:33:13.456Z,100.00
2023-04-04T04:38:30.158Z,100.00
2023-04-04T04:43:34.220Z,100.00
2023-04-04T04:48:38.679Z,100.00
2023-04-04T04:53:43.596Z,100.00
2023-04-04T04:58:49.118Z,100.00
2023-04-04T05:03:59.390Z,100.00
2023-04-04T05:09:15.049Z,100.00
2023-04-04T05:14:19.031Z,100.00
2023-04-04T05:19:32.220Z,100.00
2023-04-04T05:24:36.570Z,100.00
2023-04-04T05:29:41.352Z,100.00
2023-04-04T05:34:44.777Z,100.00
2023-04-04T05:39:53.058Z,100.00
2023-04-04T05:44:56.701Z,98.85
2023-04-04T05:50:04.285Z,97.56
2023-04-04T05:55:11.448Z,98.00
2023-04-04T06:00:16.231Z,95.18
2023-04-04T06:05:23.818Z,92.89
2023-04-04T06:10:27.713Z,86.20
2023-04-04T06:15:33.714Z,74.05
2023-04-04T06:20:37.969Z,58.28
2023-04-04T06:25:42.051Z,50.88
2023-04-04T06:30:45.719Z,46.90
2023-04-04T06:35:52.063Z,40.37
2023-04-04T06:40:57.581Z,43.63
2023-04-04T06:46:01.502Z,42.43
2023-04-04T06:51:08.423Z,42.39
2023-04-04T06:56:14.692Z,41.38
2023-04-04T07:01:18.843Z,40.69
2023-04-04T07:06:25.989Z,40.37
2023-04-04T07:11:30.312Z,41.08
2023-04-04T07:16:34.268Z,41.62
2023-04-04T07:21:38.787Z,41.83
2023-04-04T07:26:42.444Z,41.23
2023-04-04T07:31:45.582Z,43.51
2023-04-04T07:36:49.863Z,41.81
2023-04-04T07:41:53.985Z,43.10
2023-04-04T07:47:08.801Z,40.64
2023-04-04T07:52:13.982Z,42.06
2023-04-04T07:57:17.775Z,41.63
2023-04-04T08:02:21.731Z,41.61
2023-04-04T08:07:25.598Z,43.64
2023-04-04T08:12:29.383Z,43.23
2023-04-04T08:17:33.564Z,43.95
2023-04-04T08:22:37.602Z,43.12
2023-04-04T08:27:49.520Z,44.09
2023-04-04T08:32:52.819Z,45.00
2023-04-04T08:37:57.849Z,46.62
2023-04-04T08:43:02.448Z,44.52
2023-04-04T08:48:07.903Z,43.13
2023-04-04T08:53:12.207Z,43.60
2023-04-04T08:58:17.493Z,44.21
2023-04-04T09:03:31.306Z,45.63
2023-04-04T09:08:35.358Z,42.81
2023-04-04T09:13:41.492Z,43.65
2023-04-04T09:18:44.893Z,45.11
2023-04-04T09:23:48.752Z,42.07
2023-04-04T09:28:54.181Z,44.71
2023-04-04T09:33:59.074Z,45.64
2023-04-04T09:39:04.716Z,45.52
2023-04-04T09:44:11.312Z,49.02
2023-04-04T09:49:22.763Z,50.57
2023-04-04T09:54:30.248Z,51.84
2023-04-04T09:59:35.106Z,57.12
2023-04-04T10:04:38.962Z,54.79
2023-04-04T10:09:42.727Z,51.23
2023-04-04T10:14:47.949Z,59.27
2023-04-04T10:19:53.209Z,63.15
2023-04-04T10:24:57.004Z,67.27
2023-04-04T10:30:01.736Z,67.78
2023-04-04T10:35:11.314Z,71.97
2023-04-04T10:40:17.641Z,72.62
2023-04-04T10:45:22.138Z,74.82
2023-04-04T10:50:29.095Z,75.04
2023-04-04T10:55:33.951Z,72.28
2023-04-04T11:00:51.959Z,72.19
2023-04-04T11:06:02.220Z,64.85
2023-04-04T11:11:16.074Z,54.27
2023-04-04T11:16:25.991Z,56.46
2023-04-04T11:21:33.263Z,55.18
2023-04-04T11:26:37.232Z,53.60
2023-04-04T11:31:49.497Z,55.62
2023-04-04T11:36:53.692Z,57.37
2023-04-04T11:42:14.248Z,60.52
2023-04-04T11:47:23.816Z,64.43
2023-04-04T11:52:35.403Z,64.17
2023-04-04T11:57:42.277Z,67.93
2023-04-04T12:02:46.553Z,63.83
2023-04-04T12:07:54.742Z,64.98
2023-04-04T12:12:59.484Z,77.34
2023-04-04T12:18:07.746Z,84.78
2023-04-04T12:23:11.812Z,88.51
2023-04-04T12:28:15.725Z,90.38
2023-04-04T12:33:20.100Z,88.39
2023-04-04T12:38:23.944Z,87.47
2023-04-04T12:43:32.017Z,83.95
2023-04-04T12:48:37.335Z,83.56
2023-04-04T12:53:57.259Z,83.18
2023-04-04T12:59:05.143Z,79.96
2023-04-04T13:04:10.053Z,78.70
2023-04-04T13:09:24.497Z,78.59
2023-04-04T13:14:58.673Z,82.48
2023-04-04T13:20:04.406Z,83.50
2023-04-04T13:25:09.514Z,83.20
2023-04-04T13:30:13.230Z,81.73
2023-04-04T13:35:16.714Z,83.47
2023-04-04T13:40:20.600Z,78.23
2023-04-04T13:45:24.609Z,74.70
2023-04-04T13:50:28.605Z,76.72
2023-04-04T13:55:32.576Z,77.44
2023-04-04T14:00:36.406Z,81.28
2023-04-04T14:05:40.870Z,83.10
2023-04-04T14:10:44.430Z,86.58
2023-04-04T14:15:49.376Z,89.47
2023-04-04T14:20:53.426Z,90.09
2023-04-04T14:25:59.518Z,93.75
2023-04-04T14:31:03.451Z,92.50
2023-04-04T14:36:07.093Z,90.74
2023-04-04T14:41:10.792Z,88.57
2023-04-04T14:46:13.995Z,93.12
2023-04-04T14:51:19.915Z,92.34
2023-04-04T14:56:23.743Z,93.74
2023-04-04T15:01:27.887Z,91.11
2023-04-04T15:06:37.099Z,92.60
2023-04-04T15:11:41.152Z,93.41
2023-04-04T15:16:44.695Z,95.40
2023-04-04T15:21:49.164Z,97.83
2023-04-04T15:26:52.729Z,97.72
2023-04-04T15:31:56.119Z,96.63
2023-04-04T15:37:04.462Z,95.09
2023-04-04T15:42:08.579Z,94.73
2023-04-04T15:47:12.589Z,94.79
2023-04-04T15:52:16.078Z,93.81
2023-04-04T15:57:19.720Z,91.11
2023-04-04T16:02:23.766Z,89.84
2023-04-04T16:07:27.538Z,86.36
2023-04-04T16:12:34.451Z,85.65
2023-04-04T16:17:38.176Z,87.63
2023-04-04T16:22:41.674Z,87.71
2023-04-04T16:27:45.312Z,86.74
2023-04-04T16:32:49.077Z,88.82
2023-04-04T16:37:52.655Z,87.71
2023-04-04T16:42:56.531Z,90.09
2023-04-04T16:47:59.986Z,89.99
2023-04-04T16:53:04.581Z,86.28
2023-04-04T16:58:08.307Z,87.58
2023-04-04T17:03:11.929Z,90.65
2023-04-04T17:08:16.134Z,92.83
2023-04-04T17:13:20.275Z,91.52
2023-04-04T17:18:23.354Z,92.81
2023-04-04T17:23:26.896Z,94.38
2023-04-04T17:28:31.488Z,96.23
2023-04-04T17:33:34.948Z,97.52
2023-04-04T17:38:42.201Z,97.95
2023-04-04T17:43:45.176Z,97.60
2023-04-04T17:48:49.142Z,98.84
2023-04-04T17:53:52.712Z,99.77
2023-04-04T17:58:57.897Z,100.00
2023-04-04T18:04:01.853Z,100.00
2023-04-04T18:09:05.878Z,100.00
2023-04-04T18:14:10.047Z,100.00
2023-04-04T18:19:14.444Z,100.00
2023-04-04T18:24:18.452Z,100.00
2023-04-04T18:29:22.276Z,98.69
2023-04-04T18:34:26.078Z,96.40
2023-04-04T18:39:29.436Z,96.35
2023-04-04T18:44:33.251Z,96.88
2023-04-04T18:49:37.260Z,97.48
2023-04-04T18:54:41.441Z,99.16
2023-04-04T18:59:45.088Z,99.10
2023-04-04T19:04:50.026Z,99.81
2023-04-04T19:09:54.271Z,100.00
2023-04-04T19:14:59.422Z,100.00
2023-04-04T19:20:03.391Z,100.00
2023-04-04T19:25:08.001Z,100.00
2023-04-04T19:30:48.381Z,100.00
2023-04-04T19:36:00.665Z,100.00
2023-04-04T19:41:08.504Z,100.00
2023-04-04T19:46:17.503Z,100.00
2023-04-04T19:51:21.728Z,100.00
2023-04-04T19:56:27.831Z,100.00
2023-04-04T20:01:34.568Z,100.00
2023-04-04T20:06:39.254Z,100.00
2023-04-04T20:11:43.201Z,100.00
2023-04-04T20:16:46.771Z,100.00
2023-04-04T20:21:50.674Z,100.00
2023-04-04T20:27:03.238Z,100.00
2023-04-04T20:32:10.623Z,100.00
2023-04-04T20:37:14.145Z,100.00
2023-04-04T20:42:20.884Z,100.00
2023-04-04T20:47:54.771Z,100.00
2023-04-04T20:53:00.653Z,100.00
2023-04-04T20:58:11.233Z,100.00
2023-04-04T21:03:30.624Z,100.00
2023-04-04T21:08:58.658Z,100.00
2023-04-04T21:14:02.235Z,100.00
2023-04-04T21:19:06.257Z,100.00
2023-04-04T21:24:13.371Z,100.00
2023-04-04T21:29:27.124Z,100.00
2023-04-04T21:34:31.502Z,100.00
2023-04-04T21:39:36.875Z,100.00
2023-04-04T21:44:40.908Z,100.00
2023-04-04T21:49:44.018Z,100.00
2023-04-04T21:54:47.751Z,100.00
2023-04-04T21:59:51.005Z,100.00
2023-04-04T22:04:54.200Z,100.00
2023-04-04T22:09:58.985Z,100.00
2023-04-04T22:15:03.233Z,100.00
2023-04-04T22:20:08.725Z,100.00
2023-04-04T22:25:12.910Z,100.00
2023-04-04T22:30:16.939Z,100.00
2023-04-04T22:35:20.531Z,100.00
2023-04-04T22:40:24.206Z,100.00
2023-04-04T22:45:30.293Z,100.00
2023-04-04T22:50:35.747Z,100.00
2023-04-04T22:55:40.055Z,100.00
2023-04-04T23:00:44.149Z,100.00
2023-04-04T23:05:47.253Z,100.00
2023-04-04T23:10:51.009Z,100.00
2023-04-04T23:15:54.730Z,100.00
2023-04-04T23:20:58.209Z,100.00
2023-04-04T23:26:01.346Z,100.00
2023-04-04T23:31:05.413Z,100.00
2023-04-04T23:36:10.121Z,100.00
2023-04-04T23:41:14.144Z,100.00
2023-04-04T23:46:17.807Z,100.00
2023-04-04T23:51:21.605Z,100.00
2023-04-04T23:56:24.786Z,100.00
